sensor_id;sensor_type;location;lat;lon;timestamp;temperature;humidity
8664;DHT22;4369;47.842;13.096;2022-08-01T00:00:47;20.70;99.90
8664;DHT22;4369;47.842;13.096;2022-08-01T00:03:14;20.70;99.90
8664;DHT22;4369;47.842;13.096;2022-08-01T00:05:42;20.70;99.90
8664;DHT22;4369;47.842;13.096;2022-08-01T00:08:09;20.60;99.90
8664;DHT22;4369;47.842;13.096;2022-08-01T00:10:36;20.60;99.90
8664;DHT22;4369;47.842;13.096;2022-08-01T00:13:03;20.60;99.90
8664;DHT22;4369;47.842;13.096;2022-08-01T00:15:30;20.60;99.90
8664;DHT22;4369;47.842;13.096;2022-08-01T00:17:58;20.50;99.90
8664;DHT22;4369;47.842;13.096;2022-08-01T00:20:25;20.50;99.90
8664;DHT22;4369;47.842;13.096;2022-08-01T00:22:53;20.50;99.90
8664;DHT22;4369;47.842;13.096;2022-08-01T00:25:20;20.50;99.90
8664;DHT22;4369;47.842;13.096;2022-08-01T00:27:46;20.50;99.90
8664;DHT22;4369;47.842;13.096;2022-08-01T00:30:13;20.30;99.90
8664;DHT22;4369;47.842;13.096;2022-08-01T00:32:40;20.30;99.90
8664;DHT22;4369;47.842;13.096;2022-08-01T00:35:08;20.30;99.90
8664;DHT22;4369;47.842;13.096;2022-08-01T00:37:34;20.30;99.90
8664;DHT22;4369;47.842;13.096;2022-08-01T00:40:03;20.20;99.90
8664;DHT22;4369;47.842;13.096;2022-08-01T00:42:30;20.20;99.90
8664;DHT22;4369;47.842;13.096;2022-08-01T00:44:57;20.20;99.90
8664;DHT22;4369;47.842;13.096;2022-08-01T00:47:24;20.10;99.90
8664;DHT22;4369;47.842;13.096;2022-08-01T00:49:51;20.20;99.90
8664;DHT22;4369;47.842;13.096;2022-08-01T00:52:18;20.10;99.90
8664;DHT22;4369;47.842;13.096;2022-08-01T00:54:45;20.10;99.90
8664;DHT22;4369;47.842;13.096;2022-08-01T00:57:13;20.10;99.90
8664;DHT22;4369;47.842;13.096;2022-08-01T00:59:40;20.10;99.90
8664;DHT22;4369;47.842;13.096;2022-08-01T01:02:07;20.10;99.90
8664;DHT22;4369;47.842;13.096;2022-08-01T01:04:34;20.10;99.90
8664;DHT22;4369;47.842;13.096;2022-08-01T01:07:08;20.10;99.90
8664;DHT22;4369;47.842;13.096;2022-08-01T01:09:42;20.10;99.90
8664;DHT22;4369;47.842;13.096;2022-08-01T01:12:17;20.10;99.90
8664;DHT22;4369;47.842;13.096;2022-08-01T01:14:52;20.00;99.90
8664;DHT22;4369;47.842;13.096;2022-08-01T01:17:26;20.00;99.90
8664;DHT22;4369;47.842;13.096;2022-08-01T01:19:57;20.10;99.90
8664;DHT22;4369;47.842;13.096;2022-08-01T01:22:42;20.00;99.90
8664;DHT22;4369;47.842;13.096;2022-08-01T01:25:35;20.00;99.90
8664;DHT22;4369;47.842;13.096;2022-08-01T01:28:10;20.00;99.90
8664;DHT22;4369;47.842;13.096;2022-08-01T01:30:44;20.00;99.90
8664;DHT22;4369;47.842;13.096;2022-08-01T01:33:12;20.10;99.90
8664;DHT22;4369;47.842;13.096;2022-08-01T01:35:44;20.10;99.90
8664;DHT22;4369;47.842;13.096;2022-08-01T01:38:15;20.10;99.90
8664;DHT22;4369;47.842;13.096;2022-08-01T01:40:45;20.00;99.90
8664;DHT22;4369;47.842;13.096;2022-08-01T01:43:14;20.00;99.90
8664;DHT22;4369;47.842;13.096;2022-08-01T01:45:44;20.00;99.90
8664;DHT22;4369;47.842;13.096;2022-08-01T01:48:14;20.00;99.90
8664;DHT22;4369;47.842;13.096;2022-08-01T01:50:46;20.00;99.90
8664;DHT22;4369;47.842;13.096;2022-08-01T01:53:15;20.00;99.90
8664;DHT22;4369;47.842;13.096;2022-08-01T01:55:44;20.00;99.90
8664;DHT22;4369;47.842;13.096;2022-08-01T01:58:13;20.00;99.90
8664;DHT22;4369;47.842;13.096;2022-08-01T02:00:44;19.90;99.90
8664;DHT22;4369;47.842;13.096;2022-08-01T02:03:13;19.90;99.90
8664;DHT22;4369;47.842;13.096;2022-08-01T02:05:41;20.00;99.90
8664;DHT22;4369;47.842;13.096;2022-08-01T02:08:10;20.00;99.90
8664;DHT22;4369;47.842;13.096;2022-08-01T02:10:39;20.00;99.90
8664;DHT22;4369;47.842;13.096;2022-08-01T02:13:06;19.90;99.90
8664;DHT22;4369;47.842;13.096;2022-08-01T02:15:36;20.00;99.90
8664;DHT22;4369;47.842;13.096;2022-08-01T02:18:06;20.00;99.90
8664;DHT22;4369;47.842;13.096;2022-08-01T02:20:36;20.00;99.90
8664;DHT22;4369;47.842;13.096;2022-08-01T02:23:08;20.00;99.90
8664;DHT22;4369;47.842;13.096;2022-08-01T02:25:42;19.90;99.90
8664;DHT22;4369;47.842;13.096;2022-08-01T02:28:12;19.90;99.90
8664;DHT22;4369;47.842;13.096;2022-08-01T02:30:43;19.90;99.90
8664;DHT22;4369;47.842;13.096;2022-08-01T02:33:16;19.80;99.90
8664;DHT22;4369;47.842;13.096;2022-08-01T02:35:46;19.70;99.90
8664;DHT22;4369;47.842;13.096;2022-08-01T02:38:15;19.80;99.90
8664;DHT22;4369;47.842;13.096;2022-08-01T02:40:46;19.80;99.90
8664;DHT22;4369;47.842;13.096;2022-08-01T02:43:18;19.80;99.90
8664;DHT22;4369;47.842;13.096;2022-08-01T02:45:47;19.80;99.90
8664;DHT22;4369;47.842;13.096;2022-08-01T02:48:19;19.80;99.90
8664;DHT22;4369;47.842;13.096;2022-08-01T02:50:49;19.80;99.90
8664;DHT22;4369;47.842;13.096;2022-08-01T02:53:19;19.80;99.90
8664;DHT22;4369;47.842;13.096;2022-08-01T02:55:48;19.70;99.90
8664;DHT22;4369;47.842;13.096;2022-08-01T02:58:18;19.70;99.90
8664;DHT22;4369;47.842;13.096;2022-08-01T03:00:47;19.70;99.90
8664;DHT22;4369;47.842;13.096;2022-08-01T03:03:17;19.60;99.90
8664;DHT22;4369;47.842;13.096;2022-08-01T03:05:45;19.50;99.90
8664;DHT22;4369;47.842;13.096;2022-08-01T03:08:15;19.50;99.90
8664;DHT22;4369;47.842;13.096;2022-08-01T03:10:44;19.40;99.90
8664;DHT22;4369;47.842;13.096;2022-08-01T03:13:13;19.40;99.90
8664;DHT22;4369;47.842;13.096;2022-08-01T03:15:42;19.50;99.90
8664;DHT22;4369;47.842;13.096;2022-08-01T03:18:10;19.50;99.90
8664;DHT22;4369;47.842;13.096;2022-08-01T03:20:40;19.50;99.90
8664;DHT22;4369;47.842;13.096;2022-08-01T03:23:10;19.60;99.90
8664;DHT22;4369;47.842;13.096;2022-08-01T03:25:39;19.60;99.90
8664;DHT22;4369;47.842;13.096;2022-08-01T03:28:08;19.60;99.90
8664;DHT22;4369;47.842;13.096;2022-08-01T03:30:39;19.60;99.90
8664;DHT22;4369;47.842;13.096;2022-08-01T03:33:06;19.60;99.90
8664;DHT22;4369;47.842;13.096;2022-08-01T03:35:36;19.60;99.90
8664;DHT22;4369;47.842;13.096;2022-08-01T03:38:08;19.60;99.90
8664;DHT22;4369;47.842;13.096;2022-08-01T03:40:39;19.60;99.90
8664;DHT22;4369;47.842;13.096;2022-08-01T03:43:11;19.60;99.90
8664;DHT22;4369;47.842;13.096;2022-08-01T03:45:41;19.70;99.90
8664;DHT22;4369;47.842;13.096;2022-08-01T03:48:14;19.70;99.90
8664;DHT22;4369;47.842;13.096;2022-08-01T03:50:46;19.70;99.90
8664;DHT22;4369;47.842;13.096;2022-08-01T03:53:14;19.60;99.90
8664;DHT22;4369;47.842;13.096;2022-08-01T03:55:43;19.60;99.90
8664;DHT22;4369;47.842;13.096;2022-08-01T03:58:11;19.60;99.90
8664;DHT22;4369;47.842;13.096;2022-08-01T04:00:39;19.50;99.90
8664;DHT22;4369;47.842;13.096;2022-08-01T04:03:07;19.50;99.90
8664;DHT22;4369;47.842;13.096;2022-08-01T04:05:35;19.50;99.90
8664;DHT22;4369;47.842;13.096;2022-08-01T04:08:02;19.50;99.90
8664;DHT22;4369;47.842;13.096;2022-08-01T04:10:30;19.50;99.90
8664;DHT22;4369;47.842;13.096;2022-08-01T04:12:57;19.50;99.90
8664;DHT22;4369;47.842;13.096;2022-08-01T04:15:24;19.50;99.90
8664;DHT22;4369;47.842;13.096;2022-08-01T04:17:51;19.50;99.90
8664;DHT22;4369;47.842;13.096;2022-08-01T04:20:19;19.50;99.90
8664;DHT22;4369;47.842;13.096;2022-08-01T04:22:46;19.50;99.90
8664;DHT22;4369;47.842;13.096;2022-08-01T04:25:17;19.50;99.90
8664;DHT22;4369;47.842;13.096;2022-08-01T04:27:49;19.50;99.90
8664;DHT22;4369;47.842;13.096;2022-08-01T04:30:18;19.50;99.90
8664;DHT22;4369;47.842;13.096;2022-08-01T04:32:47;19.50;99.90
8664;DHT22;4369;47.842;13.096;2022-08-01T04:35:17;19.60;99.90
8664;DHT22;4369;47.842;13.096;2022-08-01T04:37:47;19.70;99.90
8664;DHT22;4369;47.842;13.096;2022-08-01T04:40:17;19.70;99.90
8664;DHT22;4369;47.842;13.096;2022-08-01T04:42:46;19.70;99.90
8664;DHT22;4369;47.842;13.096;2022-08-01T04:45:14;19.70;99.90
8664;DHT22;4369;47.842;13.096;2022-08-01T04:47:42;19.80;99.90
8664;DHT22;4369;47.842;13.096;2022-08-01T04:50:11;19.90;99.90
8664;DHT22;4369;47.842;13.096;2022-08-01T04:52:38;20.00;99.90
8664;DHT22;4369;47.842;13.096;2022-08-01T04:55:08;20.00;99.90
8664;DHT22;4369;47.842;13.096;2022-08-01T04:57:37;20.00;99.90
8664;DHT22;4369;47.842;13.096;2022-08-01T05:00:07;20.10;99.90
8664;DHT22;4369;47.842;13.096;2022-08-01T05:02:36;20.20;99.90
8664;DHT22;4369;47.842;13.096;2022-08-01T05:05:04;20.20;99.90
8664;DHT22;4369;47.842;13.096;2022-08-01T05:07:32;20.30;99.90
8664;DHT22;4369;47.842;13.096;2022-08-01T05:09:58;20.40;99.90
8664;DHT22;4369;47.842;13.096;2022-08-01T05:12:26;20.40;99.90
8664;DHT22;4369;47.842;13.096;2022-08-01T05:14:53;20.50;99.90
8664;DHT22;4369;47.842;13.096;2022-08-01T05:17:22;20.60;99.90
8664;DHT22;4369;47.842;13.096;2022-08-01T05:19:49;20.60;99.90
8664;DHT22;4369;47.842;13.096;2022-08-01T05:22:16;20.60;99.90
8664;DHT22;4369;47.842;13.096;2022-08-01T05:24:43;20.60;99.90
8664;DHT22;4369;47.842;13.096;2022-08-01T05:27:09;20.60;99.90
8664;DHT22;4369;47.842;13.096;2022-08-01T05:29:36;20.60;99.90
8664;DHT22;4369;47.842;13.096;2022-08-01T05:32:04;20.70;99.90
8664;DHT22;4369;47.842;13.096;2022-08-01T05:34:32;20.70;99.90
8664;DHT22;4369;47.842;13.096;2022-08-01T05:36:59;20.80;99.90
8664;DHT22;4369;47.842;13.096;2022-08-01T05:39:26;20.90;99.90
8664;DHT22;4369;47.842;13.096;2022-08-01T05:41:53;20.90;99.90
8664;DHT22;4369;47.842;13.096;2022-08-01T05:44:20;20.90;99.90
8664;DHT22;4369;47.842;13.096;2022-08-01T05:46:46;20.90;99.90
8664;DHT22;4369;47.842;13.096;2022-08-01T05:49:13;21.00;99.90
8664;DHT22;4369;47.842;13.096;2022-08-01T05:51:42;21.10;99.90
8664;DHT22;4369;47.842;13.096;2022-08-01T05:54:09;21.10;99.90
8664;DHT22;4369;47.842;13.096;2022-08-01T05:56:35;21.10;99.90
8664;DHT22;4369;47.842;13.096;2022-08-01T05:59:03;21.10;99.90
8664;DHT22;4369;47.842;13.096;2022-08-01T06:01:29;21.10;99.90
8664;DHT22;4369;47.842;13.096;2022-08-01T06:03:56;21.10;99.90
8664;DHT22;4369;47.842;13.096;2022-08-01T06:06:23;21.20;99.90
8664;DHT22;4369;47.842;13.096;2022-08-01T06:08:51;21.30;99.90
8664;DHT22;4369;47.842;13.096;2022-08-01T06:11:18;21.40;99.90
8664;DHT22;4369;47.842;13.096;2022-08-01T06:13:45;21.50;99.90
8664;DHT22;4369;47.842;13.096;2022-08-01T06:16:12;21.60;99.90
8664;DHT22;4369;47.842;13.096;2022-08-01T06:18:39;21.70;99.90
8664;DHT22;4369;47.842;13.096;2022-08-01T06:21:06;21.80;99.90
8664;DHT22;4369;47.842;13.096;2022-08-01T06:23:33;21.80;99.90
8664;DHT22;4369;47.842;13.096;2022-08-01T06:26:01;21.80;99.90
8664;DHT22;4369;47.842;13.096;2022-08-01T06:28:28;21.90;99.90
8664;DHT22;4369;47.842;13.096;2022-08-01T06:30:55;22.00;99.90
8664;DHT22;4369;47.842;13.096;2022-08-01T06:33:24;22.00;99.90
8664;DHT22;4369;47.842;13.096;2022-08-01T06:35:50;22.10;99.90
8664;DHT22;4369;47.842;13.096;2022-08-01T06:38:17;22.10;99.90
8664;DHT22;4369;47.842;13.096;2022-08-01T06:40:44;22.20;99.90
8664;DHT22;4369;47.842;13.096;2022-08-01T06:43:12;22.30;99.90
8664;DHT22;4369;47.842;13.096;2022-08-01T06:45:39;22.40;99.90
8664;DHT22;4369;47.842;13.096;2022-08-01T06:48:06;22.40;99.90
8664;DHT22;4369;47.842;13.096;2022-08-01T06:50:33;22.40;99.90
8664;DHT22;4369;47.842;13.096;2022-08-01T06:53:02;22.40;99.90
8664;DHT22;4369;47.842;13.096;2022-08-01T06:55:29;22.40;99.90
8664;DHT22;4369;47.842;13.096;2022-08-01T06:57:56;22.40;99.90
8664;DHT22;4369;47.842;13.096;2022-08-01T07:00:25;22.40;99.90
8664;DHT22;4369;47.842;13.096;2022-08-01T07:02:53;22.50;99.90
8664;DHT22;4369;47.842;13.096;2022-08-01T07:05:20;22.50;99.90
8664;DHT22;4369;47.842;13.096;2022-08-01T07:07:47;22.60;99.90
8664;DHT22;4369;47.842;13.096;2022-08-01T07:10:14;22.90;99.90
8664;DHT22;4369;47.842;13.096;2022-08-01T07:12:41;23.10;99.90
8664;DHT22;4369;47.842;13.096;2022-08-01T07:15:09;23.30;99.90
8664;DHT22;4369;47.842;13.096;2022-08-01T07:17:39;23.40;99.90
8664;DHT22;4369;47.842;13.096;2022-08-01T07:20:07;23.50;99.90
8664;DHT22;4369;47.842;13.096;2022-08-01T07:22:34;23.70;99.90
8664;DHT22;4369;47.842;13.096;2022-08-01T07:25:01;23.90;99.90
8664;DHT22;4369;47.842;13.096;2022-08-01T07:27:28;24.10;99.90
8664;DHT22;4369;47.842;13.096;2022-08-01T07:29:55;24.00;99.90
8664;DHT22;4369;47.842;13.096;2022-08-01T07:32:22;23.90;99.90
8664;DHT22;4369;47.842;13.096;2022-08-01T07:34:50;23.90;99.90
8664;DHT22;4369;47.842;13.096;2022-08-01T07:37:17;23.90;99.90
8664;DHT22;4369;47.842;13.096;2022-08-01T07:39:44;24.00;99.90
8664;DHT22;4369;47.842;13.096;2022-08-01T07:42:11;24.20;99.90
8664;DHT22;4369;47.842;13.096;2022-08-01T07:44:38;24.40;99.90
8664;DHT22;4369;47.842;13.096;2022-08-01T07:47:05;24.60;99.90
8664;DHT22;4369;47.842;13.096;2022-08-01T07:49:32;24.50;99.90
8664;DHT22;4369;47.842;13.096;2022-08-01T07:52:00;24.60;99.90
8664;DHT22;4369;47.842;13.096;2022-08-01T07:54:27;24.50;99.90
8664;DHT22;4369;47.842;13.096;2022-08-01T07:56:54;24.50;99.90
8664;DHT22;4369;47.842;13.096;2022-08-01T07:59:21;24.50;99.90
8664;DHT22;4369;47.842;13.096;2022-08-01T08:01:49;24.50;99.90
8664;DHT22;4369;47.842;13.096;2022-08-01T08:04:16;24.50;99.90
8664;DHT22;4369;47.842;13.096;2022-08-01T08:06:43;24.50;99.90
8664;DHT22;4369;47.842;13.096;2022-08-01T08:09:11;24.50;99.90
8664;DHT22;4369;47.842;13.096;2022-08-01T08:11:38;24.50;99.90
8664;DHT22;4369;47.842;13.096;2022-08-01T08:14:05;24.50;99.90
8664;DHT22;4369;47.842;13.096;2022-08-01T08:16:32;24.50;99.90
8664;DHT22;4369;47.842;13.096;2022-08-01T08:18:58;24.60;99.90
8664;DHT22;4369;47.842;13.096;2022-08-01T08:21:25;24.70;99.90
8664;DHT22;4369;47.842;13.096;2022-08-01T08:23:53;24.60;99.90
8664;DHT22;4369;47.842;13.096;2022-08-01T08:26:38;24.60;99.90
8664;DHT22;4369;47.842;13.096;2022-08-01T08:29:05;24.70;99.90
8664;DHT22;4369;47.842;13.096;2022-08-01T08:31:32;24.90;99.90
8664;DHT22;4369;47.842;13.096;2022-08-01T08:33:59;24.90;99.80
8664;DHT22;4369;47.842;13.096;2022-08-01T08:36:27;24.90;99.90
8664;DHT22;4369;47.842;13.096;2022-08-01T08:38:53;25.00;99.90
8664;DHT22;4369;47.842;13.096;2022-08-01T08:41:21;25.00;99.90
8664;DHT22;4369;47.842;13.096;2022-08-01T08:43:50;25.20;99.90
8664;DHT22;4369;47.842;13.096;2022-08-01T08:46:16;25.20;99.90
8664;DHT22;4369;47.842;13.096;2022-08-01T08:48:45;25.10;99.80
8664;DHT22;4369;47.842;13.096;2022-08-01T08:51:13;25.20;99.90
8664;DHT22;4369;47.842;13.096;2022-08-01T08:53:42;25.20;99.60
8664;DHT22;4369;47.842;13.096;2022-08-01T08:56:12;25.20;99.90
8664;DHT22;4369;47.842;13.096;2022-08-01T08:58:41;25.00;98.10
8664;DHT22;4369;47.842;13.096;2022-08-01T09:01:12;25.10;99.10
8664;DHT22;4369;47.842;13.096;2022-08-01T09:03:39;25.20;99.90
8664;DHT22;4369;47.842;13.096;2022-08-01T09:06:06;25.20;99.90
8664;DHT22;4369;47.842;13.096;2022-08-01T09:08:33;25.20;99.90
8664;DHT22;4369;47.842;13.096;2022-08-01T09:11:00;25.30;97.50
8664;DHT22;4369;47.842;13.096;2022-08-01T09:13:27;25.30;99.80
8664;DHT22;4369;47.842;13.096;2022-08-01T09:15:55;25.20;97.00
8664;DHT22;4369;47.842;13.096;2022-08-01T09:18:30;25.30;99.90
8664;DHT22;4369;47.842;13.096;2022-08-01T09:21:12;25.40;99.90
8664;DHT22;4369;47.842;13.096;2022-08-01T09:23:42;25.50;99.90
8664;DHT22;4369;47.842;13.096;2022-08-01T09:26:10;25.50;98.00
8664;DHT22;4369;47.842;13.096;2022-08-01T09:28:38;25.60;99.90
8664;DHT22;4369;47.842;13.096;2022-08-01T09:31:07;25.70;99.90
8664;DHT22;4369;47.842;13.096;2022-08-01T09:33:54;25.80;94.70
8664;DHT22;4369;47.842;13.096;2022-08-01T09:36:24;25.80;97.20
8664;DHT22;4369;47.842;13.096;2022-08-01T09:38:52;25.90;98.80
8664;DHT22;4369;47.842;13.096;2022-08-01T09:41:28;25.80;96.30
8664;DHT22;4369;47.842;13.096;2022-08-01T09:43:56;25.90;97.70
8664;DHT22;4369;47.842;13.096;2022-08-01T09:46:24;26.00;99.40
8664;DHT22;4369;47.842;13.096;2022-08-01T09:49:00;25.90;99.90
8664;DHT22;4369;47.842;13.096;2022-08-01T09:51:28;26.10;99.90
8664;DHT22;4369;47.842;13.096;2022-08-01T09:53:55;26.10;97.30
8664;DHT22;4369;47.842;13.096;2022-08-01T09:56:22;26.20;97.70
8664;DHT22;4369;47.842;13.096;2022-08-01T09:58:51;26.20;96.00
8664;DHT22;4369;47.842;13.096;2022-08-01T10:01:20;26.20;98.50
8664;DHT22;4369;47.842;13.096;2022-08-01T10:04:05;26.40;99.60
8664;DHT22;4369;47.842;13.096;2022-08-01T10:06:32;26.40;94.10
8664;DHT22;4369;47.842;13.096;2022-08-01T10:08:59;26.50;97.80
8664;DHT22;4369;47.842;13.096;2022-08-01T10:11:26;26.60;95.20
8664;DHT22;4369;47.842;13.096;2022-08-01T10:13:55;26.60;97.10
8664;DHT22;4369;47.842;13.096;2022-08-01T10:16:23;26.70;95.10
8664;DHT22;4369;47.842;13.096;2022-08-01T10:18:51;26.70;92.10
8664;DHT22;4369;47.842;13.096;2022-08-01T10:21:20;26.80;94.00
8664;DHT22;4369;47.842;13.096;2022-08-01T10:23:47;26.90;99.10
8664;DHT22;4369;47.842;13.096;2022-08-01T10:26:15;27.00;96.50
8664;DHT22;4369;47.842;13.096;2022-08-01T10:28:44;27.00;92.20
8664;DHT22;4369;47.842;13.096;2022-08-01T10:31:14;27.00;90.10
8664;DHT22;4369;47.842;13.096;2022-08-01T10:33:41;27.10;94.60
8664;DHT22;4369;47.842;13.096;2022-08-01T10:36:08;27.20;92.70
8664;DHT22;4369;47.842;13.096;2022-08-01T10:38:36;27.20;90.30
8664;DHT22;4369;47.842;13.096;2022-08-01T10:41:04;27.10;92.10
8664;DHT22;4369;47.842;13.096;2022-08-01T10:43:31;27.20;92.50
8664;DHT22;4369;47.842;13.096;2022-08-01T10:45:58;27.20;91.30
8664;DHT22;4369;47.842;13.096;2022-08-01T10:48:31;27.30;92.30
8664;DHT22;4369;47.842;13.096;2022-08-01T10:51:04;27.30;90.00
8664;DHT22;4369;47.842;13.096;2022-08-01T10:53:31;27.30;88.70
8664;DHT22;4369;47.842;13.096;2022-08-01T10:56:01;27.50;91.90
8664;DHT22;4369;47.842;13.096;2022-08-01T10:58:29;27.40;88.20
8664;DHT22;4369;47.842;13.096;2022-08-01T11:01:16;27.50;88.20
8664;DHT22;4369;47.842;13.096;2022-08-01T11:03:55;27.70;90.30
8664;DHT22;4369;47.842;13.096;2022-08-01T11:06:25;27.90;91.40
8664;DHT22;4369;47.842;13.096;2022-08-01T11:08:56;28.10;90.70
8664;DHT22;4369;47.842;13.096;2022-08-01T11:11:25;28.10;83.90
8664;DHT22;4369;47.842;13.096;2022-08-01T11:14:03;27.80;83.00
8664;DHT22;4369;47.842;13.096;2022-08-01T11:16:36;27.80;87.60
8664;DHT22;4369;47.842;13.096;2022-08-01T11:19:03;27.90;89.30
8664;DHT22;4369;47.842;13.096;2022-08-01T11:21:59;27.80;81.50
8664;DHT22;4369;47.842;13.096;2022-08-01T11:24:56;27.90;80.50
8664;DHT22;4369;47.842;13.096;2022-08-01T11:27:26;27.90;84.30
8664;DHT22;4369;47.842;13.096;2022-08-01T11:30:24;28.10;83.80
8664;DHT22;4369;47.842;13.096;2022-08-01T11:32:56;28.20;83.60
8664;DHT22;4369;47.842;13.096;2022-08-01T11:35:24;28.30;87.20
8664;DHT22;4369;47.842;13.096;2022-08-01T11:37:53;28.30;80.10
8664;DHT22;4369;47.842;13.096;2022-08-01T11:40:23;28.40;88.10
8664;DHT22;4369;47.842;13.096;2022-08-01T11:43:17;28.50;76.50
8664;DHT22;4369;47.842;13.096;2022-08-01T11:45:49;28.50;77.80
8664;DHT22;4369;47.842;13.096;2022-08-01T11:48:19;28.30;81.70
8664;DHT22;4369;47.842;13.096;2022-08-01T11:50:47;28.20;75.60
8664;DHT22;4369;47.842;13.096;2022-08-01T11:53:14;28.30;80.40
8664;DHT22;4369;47.842;13.096;2022-08-01T11:55:45;28.60;81.90
8664;DHT22;4369;47.842;13.096;2022-08-01T11:58:16;28.60;75.60
8664;DHT22;4369;47.842;13.096;2022-08-01T12:00:50;28.60;73.10
8664;DHT22;4369;47.842;13.096;2022-08-01T12:03:23;28.80;75.40
8664;DHT22;4369;47.842;13.096;2022-08-01T12:05:50;29.10;75.00
8664;DHT22;4369;47.842;13.096;2022-08-01T12:08:24;29.30;75.40
8664;DHT22;4369;47.842;13.096;2022-08-01T12:10:52;29.20;76.90
8664;DHT22;4369;47.842;13.096;2022-08-01T12:13:39;29.10;74.70
8664;DHT22;4369;47.842;13.096;2022-08-01T12:16:07;28.90;71.40
8664;DHT22;4369;47.842;13.096;2022-08-01T12:18:38;29.20;78.60
8664;DHT22;4369;47.842;13.096;2022-08-01T12:21:05;29.10;76.40
8664;DHT22;4369;47.842;13.096;2022-08-01T12:23:32;29.10;72.70
8664;DHT22;4369;47.842;13.096;2022-08-01T12:25:58;29.10;69.70
8664;DHT22;4369;47.842;13.096;2022-08-01T12:28:26;29.20;73.80
8664;DHT22;4369;47.842;13.096;2022-08-01T12:30:54;29.40;73.20
8664;DHT22;4369;47.842;13.096;2022-08-01T12:33:21;29.70;72.40
8664;DHT22;4369;47.842;13.096;2022-08-01T12:35:49;29.90;75.30
8664;DHT22;4369;47.842;13.096;2022-08-01T12:38:17;30.10;84.40
8664;DHT22;4369;47.842;13.096;2022-08-01T12:40:45;30.30;75.80
8664;DHT22;4369;47.842;13.096;2022-08-01T12:43:16;30.40;73.40
8664;DHT22;4369;47.842;13.096;2022-08-01T12:45:44;30.50;70.60
8664;DHT22;4369;47.842;13.096;2022-08-01T12:48:14;30.40;69.30
8664;DHT22;4369;47.842;13.096;2022-08-01T12:50:44;30.60;70.70
8664;DHT22;4369;47.842;13.096;2022-08-01T12:53:12;30.70;70.00
8664;DHT22;4369;47.842;13.096;2022-08-01T12:55:44;31.10;71.10
8664;DHT22;4369;47.842;13.096;2022-08-01T12:58:12;31.10;70.70
8664;DHT22;4369;47.842;13.096;2022-08-01T13:00:42;31.20;68.10
8664;DHT22;4369;47.842;13.096;2022-08-01T13:03:11;31.20;66.30
8664;DHT22;4369;47.842;13.096;2022-08-01T13:05:46;31.30;62.70
8664;DHT22;4369;47.842;13.096;2022-08-01T13:08:14;31.20;64.10
8664;DHT22;4369;47.842;13.096;2022-08-01T13:10:41;31.00;68.10
8664;DHT22;4369;47.842;13.096;2022-08-01T13:13:09;31.20;72.70
8664;DHT22;4369;47.842;13.096;2022-08-01T13:15:38;31.50;69.70
8664;DHT22;4369;47.842;13.096;2022-08-01T13:18:26;31.70;68.80
8664;DHT22;4369;47.842;13.096;2022-08-01T13:21:10;32.20;69.00
8664;DHT22;4369;47.842;13.096;2022-08-01T13:23:37;32.60;73.60
8664;DHT22;4369;47.842;13.096;2022-08-01T13:26:04;33.20;70.00
8664;DHT22;4369;47.842;13.096;2022-08-01T13:28:32;32.90;69.00
8664;DHT22;4369;47.842;13.096;2022-08-01T13:31:00;33.00;67.60
8664;DHT22;4369;47.842;13.096;2022-08-01T13:33:39;33.30;62.90
8664;DHT22;4369;47.842;13.096;2022-08-01T13:36:07;33.70;63.90
8664;DHT22;4369;47.842;13.096;2022-08-01T13:38:35;34.00;66.40
8664;DHT22;4369;47.842;13.096;2022-08-01T13:41:19;34.30;64.90
8664;DHT22;4369;47.842;13.096;2022-08-01T13:43:46;35.30;63.90
8664;DHT22;4369;47.842;13.096;2022-08-01T13:46:13;37.50;56.10
8664;DHT22;4369;47.842;13.096;2022-08-01T13:48:40;37.40;58.10
8664;DHT22;4369;47.842;13.096;2022-08-01T13:51:07;36.90;56.90
8664;DHT22;4369;47.842;13.096;2022-08-01T13:53:35;37.20;53.10
8664;DHT22;4369;47.842;13.096;2022-08-01T13:56:02;37.40;51.50
8664;DHT22;4369;47.842;13.096;2022-08-01T13:58:29;37.00;52.00
8664;DHT22;4369;47.842;13.096;2022-08-01T14:00:56;36.30;54.00
8664;DHT22;4369;47.842;13.096;2022-08-01T14:03:24;36.00;56.50
8664;DHT22;4369;47.842;13.096;2022-08-01T14:05:50;36.30;51.80
8664;DHT22;4369;47.842;13.096;2022-08-01T14:08:17;37.90;51.80
8664;DHT22;4369;47.842;13.096;2022-08-01T14:10:45;40.10;44.40
8664;DHT22;4369;47.842;13.096;2022-08-01T14:13:12;39.50;41.20
8664;DHT22;4369;47.842;13.096;2022-08-01T14:15:39;38.00;45.00
8664;DHT22;4369;47.842;13.096;2022-08-01T14:18:06;36.80;46.60
8664;DHT22;4369;47.842;13.096;2022-08-01T14:20:34;36.20;48.80
8664;DHT22;4369;47.842;13.096;2022-08-01T14:23:02;36.00;51.40
8664;DHT22;4369;47.842;13.096;2022-08-01T14:25:29;35.80;52.00
8664;DHT22;4369;47.842;13.096;2022-08-01T14:27:57;36.00;54.30
8664;DHT22;4369;47.842;13.096;2022-08-01T14:30:24;36.10;51.40
8664;DHT22;4369;47.842;13.096;2022-08-01T14:32:51;35.80;47.80
8664;DHT22;4369;47.842;13.096;2022-08-01T14:35:18;35.30;55.60
8664;DHT22;4369;47.842;13.096;2022-08-01T14:37:44;35.00;57.70
8664;DHT22;4369;47.842;13.096;2022-08-01T14:40:11;34.30;56.70
8664;DHT22;4369;47.842;13.096;2022-08-01T14:42:39;33.80;53.60
8664;DHT22;4369;47.842;13.096;2022-08-01T14:45:08;33.70;56.90
8664;DHT22;4369;47.842;13.096;2022-08-01T14:47:36;33.80;58.00
8664;DHT22;4369;47.842;13.096;2022-08-01T14:50:04;33.90;58.60
8664;DHT22;4369;47.842;13.096;2022-08-01T14:52:31;34.30;58.50
8664;DHT22;4369;47.842;13.096;2022-08-01T14:54:58;34.20;59.40
8664;DHT22;4369;47.842;13.096;2022-08-01T14:57:25;34.00;55.70
8664;DHT22;4369;47.842;13.096;2022-08-01T14:59:52;33.70;60.60
8664;DHT22;4369;47.842;13.096;2022-08-01T15:02:21;33.50;58.20
8664;DHT22;4369;47.842;13.096;2022-08-01T15:04:49;33.30;57.20
8664;DHT22;4369;47.842;13.096;2022-08-01T15:07:16;33.30;58.10
8664;DHT22;4369;47.842;13.096;2022-08-01T15:09:43;33.20;60.60
8664;DHT22;4369;47.842;13.096;2022-08-01T15:12:11;32.90;63.20
8664;DHT22;4369;47.842;13.096;2022-08-01T15:14:38;32.90;59.40
8664;DHT22;4369;47.842;13.096;2022-08-01T15:17:14;32.70;64.50
8664;DHT22;4369;47.842;13.096;2022-08-01T15:19:42;32.90;67.40
8664;DHT22;4369;47.842;13.096;2022-08-01T15:22:09;32.10;68.60
8664;DHT22;4369;47.842;13.096;2022-08-01T15:24:36;31.60;65.60
8664;DHT22;4369;47.842;13.096;2022-08-01T15:27:03;31.40;63.50
8664;DHT22;4369;47.842;13.096;2022-08-01T15:29:30;31.70;69.30
8664;DHT22;4369;47.842;13.096;2022-08-01T15:31:58;31.90;68.40
8664;DHT22;4369;47.842;13.096;2022-08-01T15:34:25;33.20;65.40
8664;DHT22;4369;47.842;13.096;2022-08-01T15:36:53;34.70;63.10
8664;DHT22;4369;47.842;13.096;2022-08-01T15:39:20;36.00;56.10
8664;DHT22;4369;47.842;13.096;2022-08-01T15:41:47;36.50;49.70
8664;DHT22;4369;47.842;13.096;2022-08-01T15:44:14;36.20;52.50
8664;DHT22;4369;47.842;13.096;2022-08-01T15:46:43;35.60;54.80
8664;DHT22;4369;47.842;13.096;2022-08-01T15:49:10;34.90;56.20
8664;DHT22;4369;47.842;13.096;2022-08-01T15:51:37;34.10;57.70
8664;DHT22;4369;47.842;13.096;2022-08-01T15:54:05;33.20;67.30
8664;DHT22;4369;47.842;13.096;2022-08-01T15:56:32;32.50;72.50